New Salem, Illinois
Current Conditions -  °F | °C
As of 8:35 PM on Saturday 22 Nov 2014 (Local Time) from KPPQ Reporting Station
Overcast Overcast  
Wind Chill: 54°   Ceiling: 1000
Heat Index: 54°   Visibility: 10mi
Dew Point: 49°   Wind: 15mph
Humidity: 84%   Direction: 180°S
Pressure: 29.87"   Gusts: 21mph
Location:  39.71°N, 90.85°W
Report Text: KPPQ 230235Z AUTO 18013G18KT 10SM OVC010 12/10 A2987 RMK AO2 T01230097 PWINO
Loading
Personal Weather Stations






























Interactive Weather Map New forecast layout! Learn more

10-Day Weather Forecast

Advertisements
Track Severe Weather on mobile